Terminal Aerodrome Forecast
Issued by NWS Charleston, SC

Home | Current Version | Previous Version | Text Only | Print | Product List | Glossary On
Versions: 1 2 3 4 5 6 7 8 9 10 11 12 13
000
FTUS42 KCHS 201400 AAA
TAFCHS
TAF AMD
KCHS 201437Z 2015/2112 04006KT 3SM -RA BR SCT030 BKN035
     FM201800 02008KT P6SM -RA SCT009 BKN022 OVC060
     FM202100 01008KT 6SM BR SCT005 OVC010
     FM210600 02007KT 4SM BR BKN005 OVC010=

USA.gov is the U.S. government's official web portal to all federal, state and local government web resources and services.